Time;durP1;ratioP1;P1;durP2;ratioP2;P2;SDS_P1;SDS_P2;PMS_P1;PMS_P2;Temp;Humidity;BMP_temperature;BMP_pressure;BME280_temperature;BME280_humidity;BME280_pressure;Samples;Min_cycle;Max_cycle;Signal;HPM_P1;HPM_P2
2021/08/13 00:04:48;;;;;;;16.23;9.20;;;18.70;1.00;;;;;;5035120;28;20534;-80
2021/08/13 00:10:36;;;;;;;16.00;10.37;;;18.60;1.00;;;;;;5023326;28;20178;-80
2021/08/13 00:13:36;;;;;;;14.70;9.90;;;18.60;1.00;;;;;;5035353;28;20927;-80
2021/08/13 00:19:23;;;;;;;21.07;10.30;;;18.50;1.00;;;;;;5029068;28;20398;-80
2021/08/13 00:31:55;;;;;;;19.67;11.20;;;18.40;1.00;;;;;;5035393;28;20866;-80
2021/08/13 00:34:24;;;;;;;23.53;11.57;;;18.40;1.00;;;;;;5034951;28;20393;-80
2021/08/13 00:43:34;;;;;;;18.00;10.70;;;18.20;1.00;;;;;;5033734;28;20421;-80
2021/08/13 00:56:36;;;;;;;16.33;11.10;;;18.20;1.00;;;;;;5034567;28;20443;-80
2021/08/13 01:02:24;;;;;;;26.33;12.10;;;18.10;1.00;;;;;;5015161;28;20447;-80
2021/08/13 01:05:42;;;;;;;14.33;10.60;;;18.10;1.00;;;;;;5014735;28;20793;-80
2021/08/13 01:21:44;;;;;;;18.10;11.20;;;18.00;1.00;;;;;;5034029;28;20444;-80
2021/08/13 01:27:38;;;;;;;18.17;10.80;;;18.00;1.00;;;;;;5034306;28;20404;-80
2021/08/13 01:33:25;;;;;;;23.40;12.10;;;17.90;1.00;;;;;;5033991;28;20359;-80
2021/08/13 01:42:36;;;;;;;19.07;11.03;;;17.90;1.00;;;;;;5014086;28;20456;-80
2021/08/13 01:48:26;;;;;;;16.13;10.23;;;17.90;1.00;;;;;;5016228;28;20510;-79
2021/08/13 01:50:52;;;;;;;14.93;10.93;;;17.90;1.00;;;;;;5032903;28;20880;-80
2021/08/13 01:53:43;;;;;;;19.43;11.80;;;17.90;1.00;;;;;;5034229;28;20472;-80
2021/08/13 01:59:35;;;;;;;16.93;10.30;;;17.90;1.00;;;;;;5032667;28;20402;-79
2021/08/13 02:02:30;;;;;;;19.53;11.27;;;17.90;1.00;;;;;;5033883;28;20810;-80
2021/08/13 02:08:19;;;;;;;14.17;10.47;;;17.90;1.00;;;;;;5019336;28;20439;-79
2021/08/13 02:17:31;;;;;;;15.33;10.43;;;17.90;1.00;;;;;;5033850;28;20412;-80
2021/08/13 02:20:26;;;;;;;16.40;10.27;;;17.80;1.00;;;;;;5032977;28;20506;-80
2021/08/13 02:23:12;;;;;;;14.53;10.70;;;17.90;1.00;;;;;;5033295;28;20371;-80
2021/08/13 02:32:23;;;;;;;14.50;10.20;;;17.80;1.00;;;;;;5013966;28;20412;-80
2021/08/13 02:35:12;;;;;;;21.83;10.30;;;17.80;1.00;;;;;;5027365;28;20420;-80
2021/08/13 02:38:24;;;;;;;20.30;11.00;;;17.80;1.00;;;;;;5033240;28;20400;-80
2021/08/13 02:47:34;;;;;;;20.60;11.13;;;17.70;1.00;;;;;;5033540;28;20844;-80
2021/08/13 02:50:14;;;;;;;25.80;11.10;;;17.70;1.00;;;;;;5033120;28;20387;-80
2021/08/13 02:52:54;;;;;;;18.27;10.30;;;17.70;1.00;;;;;;5033185;28;20810;-80
2021/08/13 02:59:09;;;;;;;18.23;10.27;;;17.70;1.00;;;;;;5032664;28;20427;-81
2021/08/13 03:01:38;;;;;;;15.00;10.37;;;17.70;1.00;;;;;;5033444;28;20409;-80
2021/08/13 03:04:42;;;;;;;16.37;9.93;;;17.70;1.00;;;;;;5036886;28;20802;-79
2021/08/13 03:07:42;;;;;;;18.03;10.43;;;17.70;1.00;;;;;;5036809;28;20462;-79
2021/08/13 03:13:31;;;;;;;19.17;10.50;;;17.70;1.00;;;;;;5036594;28;20445;-80
2021/08/13 03:19:20;;;;;;;14.00;10.00;;;17.70;1.00;;;;;;5035554;28;20808;-80
2021/08/13 03:22:12;;;;;;;19.80;11.00;;;17.70;1.00;;;;;;5036920;28;20369;-80
2021/08/13 03:28:37;;;;;;;21.57;11.20;;;17.70;1.00;;;;;;5036349;28;20814;-81
2021/08/13 03:31:37;;;;;;;25.60;9.90;;;17.60;1.00;;;;;;5034731;28;20727;-80
2021/08/13 03:44:12;;;;;;;17.27;10.10;;;17.60;1.00;;;;;;5035510;28;20407;-79
2021/08/13 03:49:59;;;;;;;18.43;10.27;;;17.50;1.00;;;;;;5035821;28;20908;-80
2021/08/13 03:52:43;;;;;;;16.43;10.33;;;17.50;1.00;;;;;;5035879;28;20417;-79
2021/08/13 03:55:42;;;;;;;16.10;9.67;;;17.50;1.00;;;;;;5035913;28;20169;-79
2021/08/13 03:58:51;;;;;;;24.60;10.67;;;17.50;1.00;;;;;;5035891;28;20408;-80
2021/08/13 04:04:38;;;;;;;21.03;10.03;;;17.50;1.00;;;;;;5026397;28;20469;-80
2021/08/13 04:07:42;;;;;;;16.57;10.50;;;17.50;1.00;;;;;;5035796;28;20885;-79
2021/08/13 04:10:42;;;;;;;15.23;10.07;;;17.50;1.00;;;;;;5035535;28;20170;-79
2021/08/13 04:13:12;;;;;;;14.50;10.00;;;17.50;1.00;;;;;;5035116;28;20421;-79
2021/08/13 04:16:06;;;;;;;21.23;10.40;;;17.50;1.00;;;;;;5035471;28;20412;-78
2021/08/13 04:18:42;;;;;;;15.60;10.03;;;17.50;1.00;;;;;;5035730;28;20896;-77
2021/08/13 04:21:42;;;;;;;14.90;9.80;;;17.60;1.00;;;;;;5034981;28;20421;-77
2021/08/13 04:24:37;;;;;;;16.30;10.93;;;17.60;1.00;;;;;;5025642;28;20938;-77
2021/08/13 04:27:24;;;;;;;16.63;11.40;;;17.50;1.00;;;;;;5033186;28;20404;-77
2021/08/13 04:30:00;;;;;;;19.90;11.10;;;17.50;1.00;;;;;;5032371;28;20466;-77
2021/08/13 04:33:05;;;;;;;15.10;10.13;;;17.50;1.00;;;;;;5034839;28;20491;-78
2021/08/13 04:35:36;;;;;;;18.07;10.07;;;17.50;1.00;;;;;;5015286;28;20386;-78
2021/08/13 04:38:04;;;;;;;21.00;10.60;;;17.50;1.00;;;;;;5015526;28;20466;-78
2021/08/13 04:40:31;;;;;;;16.37;11.30;;;17.60;1.00;;;;;;5024636;28;20783;-78
2021/08/13 04:42:57;;;;;;;16.07;10.00;;;17.60;1.00;;;;;;5031817;28;20391;-77
2021/08/13 04:45:42;;;;;;;18.13;10.80;;;17.60;1.00;;;;;;5029124;28;20424;-80
2021/08/13 04:48:09;;;;;;;21.33;10.97;;;17.70;1.00;;;;;;5033477;28;20787;-77
2021/08/13 04:50:35;;;;;;;15.70;10.70;;;17.60;1.00;;;;;;5032954;28;20388;-77
2021/08/13 04:53:01;;;;;;;18.53;10.20;;;17.70;1.00;;;;;;5032717;28;20414;-79
2021/08/13 04:55:42;;;;;;;16.10;11.20;;;17.80;1.00;;;;;;5034402;28;20179;-81
2021/08/13 04:58:36;;;;;;;16.40;10.13;;;17.80;1.00;;;;;;5034739;28;20163;-78
2021/08/13 05:04:24;;;;;;;17.80;10.07;;;18.00;1.00;;;;;;5027451;28;20443;-77
2021/08/13 05:06:54;;;;;;;13.07;9.73;;;18.10;1.00;;;;;;5034290;28;20414;-77
2021/08/13 05:09:42;;;;;;;18.30;10.87;;;18.10;1.00;;;;;;5034692;28;20619;-77
2021/08/13 05:12:42;;;;;;;15.10;10.13;;;18.30;1.00;;;;;;5035032;28;20371;-77
2021/08/13 05:15:13;;;;;;;14.27;10.00;;;18.30;1.00;;;;;;5034180;28;20389;-77
2021/08/13 05:24:42;;;;;;;15.30;9.20;;;18.60;1.00;;;;;;5013651;28;20417;-81
2021/08/13 05:27:12;;;;;;;14.63;9.53;;;18.70;1.00;;;;;;5032159;28;20830;-81
2021/08/13 05:30:13;;;;;;;13.10;9.40;;;18.70;1.00;;;;;;5033042;28;20795;-80
2021/08/13 05:36:15;;;;;;;12.80;9.23;;;18.70;1.00;;;;;;5030350;28;20513;-77
2021/08/13 05:39:12;;;;;;;11.80;8.30;;;18.70;1.00;;;;;;5033351;28;20410;-77
2021/08/13 05:42:12;;;;;;;17.30;10.17;;;18.80;1.00;;;;;;5032211;28;20429;-77
2021/08/13 05:45:12;;;;;;;22.60;10.60;;;18.80;1.00;;;;;;5033480;28;20794;-77
2021/08/13 05:47:48;;;;;;;16.83;9.10;;;18.90;1.00;;;;;;5030835;28;20459;-76
2021/08/13 05:50:36;;;;;;;12.40;9.57;;;19.00;1.00;;;;;;5034141;28;20397;-77
2021/08/13 05:53:02;;;;;;;23.73;10.30;;;19.10;1.00;;;;;;5033403;28;20401;-77
2021/08/13 05:55:28;;;;;;;11.90;9.20;;;19.20;1.00;;;;;;5014735;28;20392;-77
2021/08/13 05:57:54;;;;;;;12.73;8.90;;;19.20;1.00;;;;;;5013320;28;20393;-77
2021/08/13 06:00:20;;;;;;;16.60;9.20;;;;;;;;;;5013458;28;20184;-77
2021/08/13 06:02:53;;;;;;;17.60;10.07;;;19.30;1.00;;;;;;5012080;28;20254;-77
2021/08/13 06:05:20;;;;;;;17.00;9.63;;;19.50;1.00;;;;;;5015224;28;20469;-81
2021/08/13 06:07:45;;;;;;;16.83;9.10;;;19.50;1.00;;;;;;5031561;28;20748;-81
2021/08/13 06:10:11;;;;;;;13.10;9.20;;;19.70;1.00;;;;;;5032143;28;20385;-81
2021/08/13 06:12:36;;;;;;;13.87;9.53;;;19.70;1.00;;;;;;5020976;28;20188;-81
2021/08/13 06:15:03;;;;;;;12.90;8.60;;;19.80;1.00;;;;;;5025932;28;20649;-81
2021/08/13 06:17:28;;;;;;;13.63;8.90;;;19.90;1.00;;;;;;5028341;28;20181;-81
2021/08/13 06:19:54;;;;;;;18.37;11.37;;;20.00;1.00;;;;;;5013291;28;21002;-82
2021/08/13 06:22:19;;;;;;;17.87;11.63;;;20.10;1.00;;;;;;5022229;28;20186;-81
2021/08/13 06:24:45;;;;;;;18.30;10.80;;;20.20;1.00;;;;;;5016972;28;20204;-81
2021/08/13 06:27:11;;;;;;;19.10;11.00;;;20.30;1.00;;;;;;5028776;28;20171;-81
2021/08/13 06:29:37;;;;;;;19.40;10.17;;;20.50;1.00;;;;;;5028609;28;20185;-81
2021/08/13 06:32:03;;;;;;;16.70;11.70;;;20.60;1.00;;;;;;5011778;28;20174;-82
2021/08/13 06:34:29;;;;;;;16.30;10.77;;;;;;;;;;5012790;28;20396;-77
2021/08/13 06:37:18;;;;;;;20.80;10.57;;;20.80;1.00;;;;;;5022157;28;20440;-76
2021/08/13 06:40:18;;;;;;;22.70;10.33;;;20.80;1.00;;;;;;5020290;28;20380;-77
2021/08/13 06:46:06;;;;;;;12.77;8.33;;;21.10;1.00;;;;;;5017268;28;20463;-81
2021/08/13 06:48:43;;;;;;;21.63;9.33;;;21.30;1.00;;;;;;5035008;28;20417;-81
2021/08/13 06:51:42;;;;;;;16.67;9.80;;;21.30;1.00;;;;;;5037188;28;20154;-81
2021/08/13 06:54:18;;;;;;;12.87;9.20;;;21.50;1.00;;;;;;5035906;28;20419;-81
2021/08/13 06:56:48;;;;;;;14.27;8.70;;;21.60;1.00;;;;;;5037090;28;20400;-81
2021/08/13 06:59:14;;;;;;;15.17;8.63;;;21.80;1.00;;;;;;5031698;28;20412;-81
2021/08/13 07:01:42;;;;;;;14.23;7.80;;;21.90;1.00;;;;;;5033321;28;20508;-81
2021/08/13 07:04:12;;;;;;;14.63;7.20;;;22.00;1.00;;;;;;5035745;28;20239;-81
2021/08/13 07:07:14;;;;;;;13.07;8.57;;;22.40;1.00;;;;;;5036702;28;20447;-81
2021/08/13 07:09:40;;;;;;;10.43;7.50;;;22.30;1.00;;;;;;5036746;28;20390;-81
2021/08/13 07:12:13;;;;;;;16.83;7.97;;;22.50;1.00;;;;;;5036666;28;20414;-79
2021/08/13 07:14:42;;;;;;;17.40;8.53;;;22.60;1.00;;;;;;5036780;28;20395;-79
2021/08/13 07:17:12;;;;;;;13.53;8.57;;;22.70;1.00;;;;;;5036696;28;20482;-79
2021/08/13 07:19:42;;;;;;;12.90;8.33;;;23.00;1.00;;;;;;5035577;28;20760;-79
2021/08/13 07:22:12;;;;;;;13.80;8.80;;;23.00;1.00;;;;;;5036485;28;20798;-81
2021/08/13 07:24:42;;;;;;;15.83;8.27;;;23.40;1.00;;;;;;5036413;28;20430;-80
2021/08/13 07:27:42;;;;;;;12.33;8.37;;;23.50;1.00;;;;;;5036487;28;20374;-80
2021/08/13 07:30:42;;;;;;;15.40;9.00;;;23.90;1.00;;;;;;5034814;28;20523;-80
2021/08/13 07:33:42;;;;;;;12.50;8.33;;;24.00;1.00;;;;;;5036550;28;20393;-79
2021/08/13 07:36:12;;;;;;;14.40;8.67;;;24.00;1.00;;;;;;5036467;28;20413;-79
2021/08/13 07:38:42;;;;;;;13.00;8.60;;;24.10;1.00;;;;;;5034974;28;20823;-80
2021/08/13 07:41:09;;;;;;;16.33;9.40;;;24.20;1.00;;;;;;5026917;28;20990;-79
2021/08/13 07:43:35;;;;;;;14.60;8.93;;;24.30;1.00;;;;;;5026636;28;20433;-79
2021/08/13 07:46:03;;;;;;;13.20;8.57;;;24.30;1.00;;;;;;5032110;28;20454;-79
2021/08/13 07:48:28;;;;;;;17.40;9.87;;;24.30;1.00;;;;;;5029614;28;21107;-79
2021/08/13 07:50:54;;;;;;;13.90;9.10;;;24.60;1.00;;;;;;5034744;28;20425;-80
2021/08/13 07:53:20;;;;;;;14.87;8.97;;;24.70;1.00;;;;;;5029023;28;20191;-79
2021/08/13 07:55:45;;;;;;;15.07;8.50;;;24.70;1.00;;;;;;5034870;28;20182;-79
2021/08/13 07:58:11;;;;;;;14.23;9.10;;;24.80;1.00;;;;;;5026160;28;20190;-79
2021/08/13 08:00:37;;;;;;;13.50;8.80;;;;;;;;;;5032404;28;20191;-79
2021/08/13 08:03:03;;;;;;;17.73;8.83;;;25.00;1.00;;;;;;5024897;28;20271;-79
2021/08/13 08:05:29;;;;;;;11.73;8.37;;;;;;;;;;5035084;28;20519;-79
2021/08/13 08:07:56;;;;;;;11.67;8.80;;;;;;;;;;5023188;28;20815;-79
2021/08/13 08:10:22;;;;;;;12.97;8.40;;;;;;;;;;5033646;28;20891;-79
2021/08/13 08:12:47;;;;;;;15.50;9.80;;;25.10;1.00;;;;;;5023362;28;20814;-79
2021/08/13 08:15:13;;;;;;;17.17;9.30;;;;;;;;;;5015015;28;20413;-79
2021/08/13 08:17:39;;;;;;;16.47;8.47;;;25.30;1.00;;;;;;5028136;28;20176;-79
2021/08/13 08:20:07;;;;;;;13.17;9.27;;;25.30;1.00;;;;;;5034997;28;20432;-79
2021/08/13 08:22:32;;;;;;;12.80;9.03;;;25.30;1.00;;;;;;5034432;28;20180;-79
2021/08/13 08:24:58;;;;;;;14.43;8.63;;;25.20;1.00;;;;;;5034516;28;20478;-79
2021/08/13 08:27:24;;;;;;;16.27;8.47;;;25.10;1.00;;;;;;5034363;28;20509;-79
2021/08/13 08:29:49;;;;;;;14.73;8.67;;;25.10;1.00;;;;;;5029374;28;20188;-79
2021/08/13 08:32:15;;;;;;;14.17;7.93;;;;;;;;;;5032093;28;20178;-79
2021/08/13 08:34:41;;;;;;;12.63;8.17;;;;;;;;;;5032385;28;20189;-79
2021/08/13 08:37:12;;;;;;;22.00;9.10;;;25.30;1.00;;;;;;5027305;28;20430;-79
2021/08/13 08:39:40;;;;;;;10.77;7.77;;;25.20;1.00;;;;;;5026901;28;20779;-79
2021/08/13 08:42:17;;;;;;;12.57;7.80;;;25.40;1.00;;;;;;5020362;28;20913;-79
2021/08/13 08:44:43;;;;;;;14.67;8.00;;;25.60;1.00;;;;;;5028071;28;20428;-79
2021/08/13 08:47:10;;;;;;;10.63;8.30;;;25.50;1.00;;;;;;5033818;28;20418;-79
2021/08/13 08:49:40;;;;;;;12.60;7.90;;;25.50;1.00;;;;;;5034124;28;20411;-79
2021/08/13 08:52:08;;;;;;;21.60;8.20;;;25.60;1.00;;;;;;5032803;28;20452;-79
2021/08/13 08:54:38;;;;;;;11.30;7.67;;;25.80;1.00;;;;;;5034202;28;20412;-79
2021/08/13 08:57:05;;;;;;;10.73;7.97;;;25.80;1.00;;;;;;5032371;28;20406;-79
2021/08/13 08:59:36;;;;;;;18.77;7.70;;;26.00;1.00;;;;;;5033027;28;20558;-79
2021/08/13 09:02:02;;;;;;;13.27;8.60;;;26.10;1.00;;;;;;5033536;28;20411;-79
2021/08/13 09:04:28;;;;;;;11.53;7.67;;;;;;;;;;5032877;28;20418;-80
2021/08/13 09:06:54;;;;;;;12.63;7.87;;;;;;;;;;5033606;28;20194;-79
2021/08/13 09:09:20;;;;;;;11.63;8.50;;;;;;;;;;5033276;28;20398;-79
2021/08/13 09:11:46;;;;;;;12.23;8.40;;;26.70;1.00;;;;;;5033660;28;20395;-79
2021/08/13 09:14:13;;;;;;;12.47;8.13;;;26.80;1.00;;;;;;5033320;28;20814;-79
2021/08/13 09:16:58;;;;;;;11.23;7.73;;;26.80;1.00;;;;;;5033005;28;20879;-79
2021/08/13 09:19:49;;;;;;;13.90;7.50;;;26.90;1.00;;;;;;5024719;28;20427;-79
2021/08/13 09:22:18;;;;;;;15.23;8.23;;;26.90;1.00;;;;;;5015020;28;20979;-79
2021/08/13 09:24:50;;;;;;;10.60;7.73;;;27.00;1.00;;;;;;5018238;28;20901;-79
2021/08/13 09:27:27;;;;;;;15.57;8.20;;;27.20;1.00;;;;;;5033519;28;20395;-79
2021/08/13 09:30:12;;;;;;;10.27;7.80;;;27.20;1.00;;;;;;5033163;28;20419;-79
2021/08/13 09:32:58;;;;;;;13.60;7.40;;;27.40;1.00;;;;;;5110234;27;20517;-77
2021/08/13 09:35:36;;;;;;;10.80;8.17;;;27.40;1.00;;;;;;5113491;28;20470;-77
2021/08/13 09:38:09;;;;;;;11.80;8.50;;;27.50;1.00;;;;;;5116122;27;20403;-77
2021/08/13 09:40:40;;;;;;;12.60;8.40;;;27.70;1.00;;;;;;5115977;28;20420;-77
2021/08/13 09:43:06;;;;;;;17.20;8.10;;;27.70;1.00;;;;;;5112842;27;20409;-77
2021/08/13 09:45:31;;;;;;;11.00;7.67;;;27.70;1.00;;;;;;5098765;28;20850;-78
2021/08/13 09:47:57;;;;;;;15.27;8.83;;;27.80;1.00;;;;;;5110412;28;20487;-78
2021/08/13 09:50:40;;;;;;;25.47;8.07;;;27.80;1.00;;;;;;5110254;28;20233;-78
2021/08/13 09:53:14;;;;;;;16.57;7.90;;;28.00;1.00;;;;;;5109193;28;20584;-78
2021/08/13 09:55:41;;;;;;;11.47;7.77;;;28.00;1.00;;;;;;5110198;28;20405;-80
2021/08/13 09:58:24;;;;;;;10.33;8.57;;;28.00;1.00;;;;;;5108874;28;20436;-80
2021/08/13 10:00:50;;;;;;;11.40;7.97;;;28.10;1.00;;;;;;5110270;28;20468;-80
2021/08/13 10:03:17;;;;;;;12.30;7.97;;;28.10;1.00;;;;;;5109801;28;20799;-80
2021/08/13 10:05:43;;;;;;;9.20;7.57;;;28.10;1.00;;;;;;5110102;28;20406;-80
2021/08/13 10:08:09;;;;;;;12.27;7.90;;;28.10;1.00;;;;;;5109652;28;20425;-80
2021/08/13 10:10:42;;;;;;;9.63;7.03;;;28.20;1.00;;;;;;5108425;28;20259;-80
2021/08/13 10:13:10;;;;;;;11.87;7.57;;;28.40;1.00;;;;;;5109544;28;20411;-80
2021/08/13 10:15:43;;;;;;;9.37;6.93;;;28.40;1.00;;;;;;5110024;28;20410;-80
2021/08/13 10:18:13;;;;;;;12.33;7.97;;;28.50;1.00;;;;;;5109730;28;20501;-80
2021/08/13 10:20:50;;;;;;;8.80;6.77;;;28.50;1.00;;;;;;5109837;28;20786;-80
2021/08/13 10:23:16;;;;;;;19.63;8.27;;;28.60;1.00;;;;;;5110219;28;20387;-80
2021/08/13 10:25:43;;;;;;;16.10;7.87;;;28.60;1.00;;;;;;5109842;28;20437;-79
2021/08/13 10:28:08;;;;;;;13.97;7.30;;;28.50;1.00;;;;;;5109790;28;20397;-79
2021/08/13 10:30:34;;;;;;;12.07;7.93;;;;;;;;;;5109332;28;20426;-79
2021/08/13 10:33:02;;;;;;;14.23;7.70;;;28.40;1.00;;;;;;5108393;28;20194;-80
2021/08/13 10:35:57;;;;;;;11.17;7.27;;;28.50;1.00;;;;;;5109654;28;20750;-80
2021/08/13 10:38:25;;;;;;;10.20;8.00;;;28.50;1.00;;;;;;5107739;28;20422;-80
2021/08/13 10:40:51;;;;;;;10.13;7.03;;;28.60;1.00;;;;;;5109447;28;20511;-80
2021/08/13 10:43:20;;;;;;;11.80;6.87;;;28.60;1.00;;;;;;5100540;28;20800;-80
2021/08/13 10:45:51;;;;;;;11.30;6.80;;;28.60;1.00;;;;;;5095867;28;20412;-80
2021/08/13 10:48:28;;;;;;;10.97;7.57;;;28.70;1.00;;;;;;5095829;28;20410;-80
2021/08/13 10:50:57;;;;;;;10.07;7.07;;;28.80;1.00;;;;;;5095766;28;20458;-80
2021/08/13 10:53:24;;;;;;;12.53;7.83;;;29.00;1.00;;;;;;5096144;28;20396;-83
2021/08/13 10:55:56;;;;;;;10.20;7.57;;;29.00;1.00;;;;;;5095647;28;20461;-85
2021/08/13 10:58:39;;;;;;;12.47;7.70;;;29.10;1.00;;;;;;5095887;28;20424;-86
2021/08/13 11:01:16;;;;;;;14.93;8.13;;;29.10;1.00;;;;;;5095503;28;20426;-85
2021/08/13 11:04:04;;;;;;;11.00;7.47;;;29.20;1.00;;;;;;5095582;28;20427;-86
2021/08/13 11:06:36;;;;;;;13.00;7.43;;;29.40;1.00;;;;;;5095259;28;20419;-85
2021/08/13 11:09:05;;;;;;;10.67;8.20;;;29.50;1.00;;;;;;5093964;28;20976;-86
2021/08/13 11:11:50;;;;;;;10.37;7.50;;;29.50;1.00;;;;;;5095400;28;20450;-85
2021/08/13 11:14:33;;;;;;;14.33;6.93;;;29.70;1.00;;;;;;5095209;28;20431;-85
2021/08/13 11:16:59;;;;;;;9.17;6.60;;;29.90;1.00;;;;;;5094944;28;20412;-85
2021/08/13 11:19:27;;;;;;;9.97;7.00;;;30.00;1.00;;;;;;5076928;28;20486;-84
2021/08/13 11:21:55;;;;;;;10.80;6.90;;;30.20;1.00;;;;;;5084062;28;20451;-86
2021/08/13 11:24:51;;;;;;;20.13;7.23;;;30.50;1.00;;;;;;5095332;28;20944;-86
2021/08/13 11:27:16;;;;;;;10.43;7.70;;;30.50;1.00;;;;;;5094674;28;20509;-86
2021/08/13 11:29:43;;;;;;;17.10;7.27;;;30.70;1.00;;;;;;5094756;28;20520;-84
2021/08/13 11:32:17;;;;;;;10.23;6.70;;;30.70;1.00;;;;;;5093910;28;20212;-85
2021/08/13 11:35:35;;;;;;;11.23;7.10;;;30.90;1.00;;;;;;5108386;28;20819;-87
2021/08/13 11:38:12;;;;;;;9.57;6.60;;;30.90;1.00;;;;;;5095609;28;20412;-84
2021/08/13 11:41:00;;;;;;;8.77;6.87;;;31.10;1.00;;;;;;5083915;28;20826;-84
2021/08/13 11:43:43;;;;;;;11.53;6.87;;;31.10;1.00;;;;;;5093544;28;20469;-84
2021/08/13 11:46:34;;;;;;;11.30;6.90;;;31.10;1.00;;;;;;5095136;28;20495;-84
2021/08/13 11:49:12;;;;;;;10.47;7.57;;;31.10;1.00;;;;;;5095106;28;20945;-84
2021/08/13 11:51:50;;;;;;;13.00;6.70;;;31.10;1.00;;;;;;5095036;28;20440;-85
2021/08/13 11:54:27;;;;;;;10.17;7.07;;;31.20;1.00;;;;;;5097029;28;20484;-85
2021/08/13 11:56:53;;;;;;;10.10;7.20;;;31.10;1.00;;;;;;5092413;28;20852;-85
2021/08/13 11:59:19;;;;;;;11.53;6.87;;;31.00;1.00;;;;;;5096433;28;20497;-82
2021/08/13 12:01:54;;;;;;;10.60;6.80;;;31.00;1.00;;;;;;5087029;28;20504;-82
2021/08/13 12:04:25;;;;;;;12.50;6.90;;;31.10;1.00;;;;;;5084002;28;20224;-78
2021/08/13 12:07:13;;;;;;;12.50;7.33;;;31.20;1.00;;;;;;5084259;28;20934;-77
2021/08/13 12:09:43;;;;;;;10.57;7.17;;;31.20;1.00;;;;;;5097640;28;20817;-82
2021/08/13 12:12:31;;;;;;;9.00;6.23;;;31.30;1.00;;;;;;5093021;28;20444;-82
2021/08/13 12:15:01;;;;;;;9.57;6.80;;;31.50;1.00;;;;;;5083712;28;20443;-85
2021/08/13 12:17:54;;;;;;;10.27;6.87;;;31.50;1.00;;;;;;5093094;28;20412;-82
2021/08/13 12:20:20;;;;;;;8.33;6.77;;;31.60;1.00;;;;;;5094507;28;20404;-82
2021/08/13 12:22:48;;;;;;;10.93;7.03;;;31.50;1.00;;;;;;5094760;28;20413;-83
2021/08/13 12:25:38;;;;;;;8.60;6.57;;;31.60;1.00;;;;;;5092608;28;20420;-82
2021/08/13 12:28:06;;;;;;;10.03;7.10;;;31.90;1.00;;;;;;5092518;28;20436;-82
2021/08/13 12:30:34;;;;;;;12.30;6.77;;;31.90;1.00;;;;;;5101240;28;20415;-82
2021/08/13 12:33:02;;;;;;;11.37;6.87;;;32.10;1.00;;;;;;5094152;28;20417;-82
2021/08/13 12:35:45;;;;;;;14.90;6.83;;;32.10;1.00;;;;;;5080375;28;20405;-82
2021/08/13 12:38:13;;;;;;;9.27;6.43;;;32.10;1.00;;;;;;5094541;28;20409;-82
2021/08/13 12:40:47;;;;;;;8.00;6.63;;;32.10;1.00;;;;;;5084817;28;20456;-83
2021/08/13 12:43:25;;;;;;;12.13;6.90;;;32.10;1.00;;;;;;5091894;28;20448;-82
2021/08/13 12:45:56;;;;;;;12.27;7.37;;;32.40;1.00;;;;;;5094141;28;20943;-82
2021/08/13 12:48:23;;;;;;;8.00;6.20;;;32.40;1.00;;;;;;5093827;28;20902;-81
2021/08/13 12:51:38;;;;;;;9.57;6.80;;;32.50;1.00;;;;;;5093950;28;20479;-82
2021/08/13 12:54:33;;;;;;;7.93;6.33;;;32.80;1.00;;;;;;5081075;28;20439;-78
2021/08/13 12:57:13;;;;;;;14.00;5.97;;;33.10;1.00;;;;;;5021033;28;20470;-77
2021/08/13 12:59:43;;;;;;;7.90;5.73;;;32.90;1.00;;;;;;5030308;28;20423;-78
2021/08/13 13:02:29;;;;;;;7.63;5.80;;;33.00;1.00;;;;;;5014396;28;20433;-78
2021/08/13 13:05:00;;;;;;;9.90;6.50;;;33.00;1.00;;;;;;5025776;28;20415;-78
2021/08/13 13:07:30;;;;;;;14.90;6.63;;;33.30;1.00;;;;;;5015644;28;20432;-77
2021/08/13 13:10:28;;;;;;;9.90;6.80;;;33.30;1.00;;;;;;5018124;28;20916;-84
2021/08/13 13:13:06;;;;;;;7.60;6.57;;;33.40;1.00;;;;;;4992173;28;20468;-84
2021/08/13 13:15:36;;;;;;;10.13;6.20;;;33.20;1.00;;;;;;4974309;28;21112;-83
2021/08/13 13:18:39;;;;;;;7.03;6.43;;;33.20;1.00;;;;;;4992377;28;20409;-83
2021/08/13 13:21:28;;;;;;;7.00;5.80;;;33.00;1.00;;;;;;4949291;29;20570;-83
2021/08/13 13:23:58;;;;;;;13.80;6.43;;;32.80;1.00;;;;;;4941782;29;20420;-81
2021/08/13 13:26:24;;;;;;;9.40;6.50;;;32.60;1.00;;;;;;4934310;29;20423;-81
2021/08/13 13:28:51;;;;;;;11.37;6.30;;;32.50;1.00;;;;;;4934394;29;20443;-79
2021/08/13 13:31:26;;;;;;;11.60;6.57;;;32.30;1.00;;;;;;4934464;29;20609;-79
2021/08/13 13:33:59;;;;;;;9.47;6.03;;;32.10;1.00;;;;;;4943835;29;20517;-79
2021/08/13 13:36:42;;;;;;;10.33;6.53;;;31.70;1.00;;;;;;4961668;28;20433;-79
2021/08/13 13:39:16;;;;;;;8.60;6.00;;;31.60;1.00;;;;;;4972607;28;20497;-76
2021/08/13 13:41:48;;;;;;;11.80;6.67;;;31.60;1.00;;;;;;4972281;28;20841;-76
2021/08/13 13:44:24;;;;;;;6.93;6.00;;;31.60;1.00;;;;;;4956313;28;20430;-76
2021/08/13 13:46:49;;;;;;;7.87;6.10;;;31.40;1.00;;;;;;4963099;28;20501;-76
2021/08/13 13:49:15;;;;;;;8.00;6.00;;;31.10;1.00;;;;;;4992165;28;20966;-76
2021/08/13 13:51:42;;;;;;;9.47;6.87;;;31.00;1.00;;;;;;5011587;28;20292;-82
2021/08/13 13:54:08;;;;;;;13.23;6.90;;;30.80;1.00;;;;;;5019640;28;20636;-74
2021/08/13 13:56:34;;;;;;;9.17;6.47;;;30.50;1.00;;;;;;5063839;28;20488;-77
2021/08/13 13:59:00;;;;;;;15.37;6.87;;;30.50;1.00;;;;;;5053533;28;20164;-78
2021/08/13 14:01:36;;;;;;;13.43;7.97;;;30.30;1.00;;;;;;5053272;28;20171;-80
2021/08/13 14:04:12;;;;;;;11.57;7.73;;;30.00;1.00;;;;;;5053214;28;20428;-84
2021/08/13 14:06:48;;;;;;;13.17;7.43;;;29.80;1.00;;;;;;5056352;28;20837;-81
2021/08/13 14:12:37;;;;;;;17.07;7.67;;;29.90;1.00;;;;;;5072934;28;21001;-80
2021/08/13 14:15:08;;;;;;;14.63;8.00;;;30.10;1.00;;;;;;5053984;28;20409;-80
2021/08/13 14:17:43;;;;;;;12.70;7.27;;;30.20;1.00;;;;;;5054577;28;20421;-80
2021/08/13 14:20:25;;;;;;;10.47;7.27;;;30.20;1.00;;;;;;5056829;28;20391;-80
2021/08/13 14:22:55;;;;;;;10.50;6.50;;;30.20;1.00;;;;;;5055965;28;20883;-80
2021/08/13 14:25:25;;;;;;;9.00;7.03;;;30.30;1.00;;;;;;5075164;28;20810;-80
2021/08/13 14:28:00;;;;;;;8.00;6.40;;;30.50;1.00;;;;;;5058123;28;20974;-81
2021/08/13 14:30:26;;;;;;;12.00;6.77;;;30.70;1.00;;;;;;5056558;28;20386;-81
2021/08/13 14:33:12;;;;;;;9.10;6.43;;;31.00;1.00;;;;;;5055548;28;20464;-82
2021/08/13 14:35:38;;;;;;;9.70;6.70;;;31.30;1.00;;;;;;5067771;28;20210;-81
2021/08/13 14:38:06;;;;;;;10.50;6.63;;;31.30;1.00;;;;;;5072413;28;20416;-81
2021/08/13 14:40:43;;;;;;;7.90;5.87;;;31.60;1.00;;;;;;5076768;28;20414;-82
2021/08/13 14:43:12;;;;;;;13.57;6.40;;;31.60;1.00;;;;;;5074153;28;20389;-82
2021/08/13 14:45:43;;;;;;;9.33;6.80;;;31.70;1.00;;;;;;5056920;28;20810;-82
2021/08/13 14:48:18;;;;;;;8.97;6.23;;;31.70;1.00;;;;;;5056321;28;20399;-82
2021/08/13 14:50:48;;;;;;;7.27;5.93;;;31.90;1.00;;;;;;5056132;28;20386;-81
2021/08/13 14:53:54;;;;;;;9.93;6.40;;;32.00;1.00;;;;;;5056539;28;20845;-81
2021/08/13 14:56:20;;;;;;;10.10;6.60;;;32.10;1.00;;;;;;5063711;28;20413;-79
2021/08/13 14:58:46;;;;;;;7.90;6.13;;;32.10;1.00;;;;;;5074899;28;20439;-80
2021/08/13 15:01:42;;;;;;;9.83;6.60;;;32.00;1.00;;;;;;5076293;28;20170;-79
2021/08/13 15:04:11;;;;;;;8.83;6.10;;;31.70;1.00;;;;;;5064588;28;20920;-81
2021/08/13 15:06:48;;;;;;;9.43;6.60;;;31.60;1.00;;;;;;5055867;28;20429;-80
2021/08/13 15:09:30;;;;;;;18.23;7.23;;;31.60;1.00;;;;;;5056159;28;20418;-81
2021/08/13 15:12:12;;;;;;;12.30;6.50;;;31.60;1.00;;;;;;5055821;28;20931;-83
2021/08/13 15:15:00;;;;;;;9.83;6.33;;;31.40;1.00;;;;;;5054924;28;20403;-82
2021/08/13 15:17:36;;;;;;;11.17;6.63;;;31.40;1.00;;;;;;5054818;28;20410;-82
2021/08/13 15:20:03;;;;;;;10.33;6.73;;;31.40;1.00;;;;;;5055731;28;20880;-81
2021/08/13 15:22:29;;;;;;;8.40;6.13;;;31.70;1.00;;;;;;5087198;28;21088;-82
2021/08/13 15:28:18;;;;;;;7.90;6.10;;;32.40;1.00;;;;;;5064955;28;20231;-89
2021/08/13 15:30:45;;;;;;;6.90;5.83;;;32.60;1.00;;;;;;5076413;28;20927;-88
2021/08/13 15:33:11;;;;;;;11.23;6.00;;;32.50;1.00;;;;;;5076030;28;20538;-88
2021/08/13 15:38:58;;;;;;;6.70;5.70;;;32.30;1.00;;;;;;5076026;28;20189;-85
2021/08/13 15:41:42;;;;;;;11.47;6.43;;;32.20;1.00;;;;;;5075019;28;20782;-84
2021/08/13 15:45:00;;;;;;;7.63;5.87;;;32.20;1.00;;;;;;5060870;28;20645;-83
2021/08/13 15:51:01;;;;;;;7.47;5.83;;;32.20;1.00;;;;;;5074924;28;20443;-86
2021/08/13 15:53:37;;;;;;;10.00;6.60;;;32.30;1.00;;;;;;5072023;28;20420;-87
2021/08/13 15:56:02;;;;;;;6.30;5.70;;;32.50;1.00;;;;;;5073021;28;20414;-87
2021/08/13 16:02:01;;;;;;;9.00;6.23;;;32.10;1.00;;;;;;5056473;28;20202;-87
2021/08/13 16:05:00;;;;;;;8.67;5.77;;;31.90;1.00;;;;;;5064654;28;20417;-87
2021/08/13 16:10:47;;;;;;;13.00;6.60;;;31.40;1.00;;;;;;5075619;28;20397;-87
2021/08/13 16:17:31;;;;;;;11.83;7.00;;;30.80;1.00;;;;;;5059753;28;20174;-88
2021/08/13 16:26:41;;;;;;;10.17;7.43;;;29.70;1.00;;;;;;5067652;28;20402;-85
2021/08/13 16:29:07;;;;;;;20.50;7.90;;;29.30;1.00;;;;;;5072902;28;20518;-80